createdAt,value
2023-01-27T00:00:52.131Z,13.50
2023-01-27T00:03:23.760Z,12.77
2023-01-27T00:05:50.988Z,13.33
2023-01-27T00:08:18.704Z,12.97
2023-01-27T00:10:45.965Z,13.17
2023-01-27T00:13:32.053Z,11.73
2023-01-27T00:15:59.429Z,12.27
2023-01-27T00:18:26.540Z,12.57
2023-01-27T00:21:12.344Z,12.63
2023-01-27T00:23:57.983Z,11.97
2023-01-27T00:26:25.264Z,11.67
2023-01-27T00:28:52.287Z,11.63
2023-01-27T00:31:38.550Z,13.43
2023-01-27T00:34:12.025Z,12.30
2023-01-27T00:36:41.588Z,11.63
2023-01-27T00:39:10.550Z,12.70
2023-01-27T00:41:38.351Z,12.10
2023-01-27T00:44:13.536Z,13.27
2023-01-27T00:46:42.307Z,13.53
2023-01-27T00:49:10.553Z,13.03
2023-01-27T00:51:37.941Z,12.60
2023-01-27T00:54:05.548Z,13.17
2023-01-27T00:56:33.453Z,12.97
2023-01-27T00:59:01.084Z,13.50
2023-01-27T01:01:28.620Z,12.27
2023-01-27T01:03:55.912Z,11.97
2023-01-27T01:06:23.117Z,12.40
2023-01-27T01:08:51.464Z,12.93
2023-01-27T01:11:23.359Z,12.43
2023-01-27T01:13:50.496Z,12.47
2023-01-27T01:16:23.108Z,11.70
2023-01-27T01:18:50.337Z,12.80
2023-01-27T01:21:17.693Z,10.10
2023-01-27T01:23:45.883Z,11.70
2023-01-27T01:26:15.853Z,11.30
2023-01-27T01:28:44.681Z,11.60
2023-01-27T01:31:14.867Z,12.53
2023-01-27T01:33:41.845Z,12.47
2023-01-27T01:36:11.655Z,12.63
2023-01-27T01:38:39.268Z,12.00
2023-01-27T01:41:10.290Z,12.73
2023-01-27T01:43:37.251Z,13.60
2023-01-27T01:46:06.214Z,14.17
2023-01-27T01:48:56.640Z,13.43
2023-01-27T01:51:29.908Z,11.17
2023-01-27T01:54:04.255Z,12.00
2023-01-27T01:56:54.670Z,11.63
2023-01-27T01:59:33.526Z,10.93
2023-01-27T02:02:04.970Z,12.33
2023-01-27T02:04:37.063Z,11.23
2023-01-27T02:07:41.949Z,11.17
2023-01-27T02:10:09.882Z,11.60
2023-01-27T02:12:37.185Z,13.93
2023-01-27T02:15:06.131Z,14.47
2023-01-27T02:17:33.559Z,14.63
2023-01-27T02:20:22.883Z,17.37
2023-01-27T02:23:06.289Z,17.27
2023-01-27T02:25:35.984Z,18.27
2023-01-27T02:28:05.855Z,17.90
2023-01-27T02:30:33.754Z,17.27
2023-01-27T02:33:01.152Z,17.17
2023-01-27T02:35:36.654Z,18.33
2023-01-27T02:38:06.887Z,18.27
2023-01-27T02:40:36.565Z,19.47
2023-01-27T02:43:04.990Z,18.60
2023-01-27T02:45:32.037Z,19.37
2023-01-27T02:47:59.436Z,20.80
2023-01-27T02:50:26.716Z,19.00
2023-01-27T02:52:53.965Z,19.77
2023-01-27T02:55:20.897Z,19.53
2023-01-27T02:57:49.896Z,21.63
2023-01-27T03:00:17.372Z,20.10
2023-01-27T03:02:44.727Z,19.90
2023-01-27T03:05:12.167Z,20.57
2023-01-27T03:07:39.640Z,20.87
2023-01-27T03:10:07.209Z,20.93
2023-01-27T03:12:34.528Z,20.47
2023-01-27T03:15:20.275Z,20.03
2023-01-27T03:18:06.412Z,20.07
2023-01-27T03:20:33.374Z,20.70
2023-01-27T03:23:00.624Z,20.30
2023-01-27T03:25:27.601Z,20.57
2023-01-27T03:27:55.580Z,21.27
2023-01-27T03:30:22.622Z,21.53
2023-01-27T03:32:49.842Z,20.10
2023-01-27T03:35:17.667Z,20.93
2023-01-27T03:38:04.038Z,21.87
2023-01-27T03:40:49.947Z,23.63
2023-01-27T03:43:35.670Z,22.30
2023-01-27T03:46:20.816Z,23.87
2023-01-27T03:48:52.735Z,23.83
2023-01-27T03:51:21.852Z,22.87
2023-01-27T03:53:49.534Z,21.90
2023-01-27T03:56:18.086Z,23.70
2023-01-27T03:58:45.576Z,23.20
2023-01-27T04:01:15.507Z,24.90
2023-01-27T04:04:01.672Z,22.47
2023-01-27T04:06:50.088Z,22.73
2023-01-27T04:09:22.187Z,21.67
2023-01-27T04:11:55.245Z,22.00
2023-01-27T04:14:25.630Z,22.47
2023-01-27T04:16:54.593Z,24.63
2023-01-27T04:19:22.006Z,24.03
2023-01-27T04:21:49.246Z,24.93
2023-01-27T04:24:17.444Z,25.37
2023-01-27T04:26:45.681Z,25.77
2023-01-27T04:29:13.844Z,25.73
2023-01-27T04:31:41.069Z,24.70
2023-01-27T04:34:10.562Z,23.80
2023-01-27T04:36:37.543Z,22.83
2023-01-27T04:39:04.766Z,23.93
2023-01-27T04:41:31.739Z,21.60
2023-01-27T04:43:58.943Z,22.70
2023-01-27T04:46:26.107Z,23.17
2023-01-27T04:48:53.907Z,22.57
2023-01-27T04:51:20.851Z,24.00
2023-01-27T04:53:48.184Z,24.00
2023-01-27T04:56:24.594Z,22.87
2023-01-27T04:58:52.404Z,24.23
2023-01-27T05:01:19.638Z,24.33
2023-01-27T05:03:46.900Z,24.97
2023-01-27T05:06:13.997Z,23.37
2023-01-27T05:08:41.597Z,24.93
2023-01-27T05:11:08.701Z,24.07
2023-01-27T05:13:36.010Z,24.53
2023-01-27T05:16:08.404Z,23.93
2023-01-27T05:18:36.204Z,24.73
2023-01-27T05:21:03.785Z,24.23
2023-01-27T05:23:37.238Z,23.27
2023-01-27T05:26:16.942Z,25.20
2023-01-27T05:28:45.719Z,23.63
2023-01-27T05:31:19.292Z,21.83
2023-01-27T05:33:48.487Z,23.80
2023-01-27T05:36:17.994Z,24.37
2023-01-27T05:38:45.453Z,22.73
2023-01-27T05:41:14.265Z,23.50
2023-01-27T05:43:43.124Z,25.57
2023-01-27T05:46:19.612Z,22.37
2023-01-27T05:48:49.815Z,24.77
2023-01-27T05:51:18.975Z,21.80
2023-01-27T05:53:46.838Z,23.70
2023-01-27T05:56:16.947Z,22.73
2023-01-27T05:58:44.854Z,23.87
2023-01-27T06:01:17.617Z,25.17
2023-01-27T06:03:45.809Z,23.53
2023-01-27T06:06:14.675Z,23.07
2023-01-27T06:08:42.745Z,24.13
2023-01-27T06:11:09.947Z,25.87
2023-01-27T06:13:38.990Z,24.77
2023-01-27T06:16:08.726Z,24.73
2023-01-27T06:18:37.324Z,25.30
2023-01-27T06:21:10.643Z,26.40
2023-01-27T06:23:38.657Z,26.73
2023-01-27T06:26:09.770Z,25.37
2023-01-27T06:28:38.146Z,23.97
2023-01-27T06:31:17.129Z,21.73
2023-01-27T06:33:45.139Z,24.83
2023-01-27T06:36:15.110Z,22.97
2023-01-27T06:38:42.980Z,28.20
2023-01-27T06:41:10.713Z,28.63
2023-01-27T06:43:38.036Z,23.67
2023-01-27T06:46:06.161Z,24.47
2023-01-27T06:48:34.063Z,22.43
2023-01-27T06:51:01.267Z,21.90
2023-01-27T06:53:28.651Z,22.53
2023-01-27T06:56:00.495Z,23.20
2023-01-27T06:58:28.524Z,21.30
2023-01-27T07:00:56.702Z,22.63
2023-01-27T07:03:24.317Z,23.33
2023-01-27T07:05:52.541Z,22.63
2023-01-27T07:08:19.888Z,22.27
2023-01-27T07:10:46.886Z,22.50
2023-01-27T07:13:15.208Z,23.17
2023-01-27T07:15:42.957Z,23.00
2023-01-27T07:18:12.378Z,21.33
2023-01-27T07:20:42.374Z,23.13
2023-01-27T07:23:10.215Z,22.03
2023-01-27T07:25:37.603Z,21.93
2023-01-27T07:28:05.916Z,21.93
2023-01-27T07:30:38.075Z,21.97
2023-01-27T07:33:11.192Z,21.47
2023-01-27T07:35:39.477Z,21.97
2023-01-27T07:38:07.278Z,20.63
2023-01-27T07:40:35.668Z,21.00
2023-01-27T07:43:03.735Z,20.27
2023-01-27T07:45:31.082Z,20.70
2023-01-27T07:48:06.142Z,18.27
2023-01-27T07:50:33.348Z,20.10
2023-01-27T07:53:02.455Z,21.70
2023-01-27T07:55:30.207Z,20.67
2023-01-27T07:57:57.875Z,21.00
2023-01-27T08:00:25.397Z,19.90
2023-01-27T08:02:54.255Z,17.87
2023-01-27T08:05:22.922Z,15.07
2023-01-27T08:07:51.482Z,15.33
2023-01-27T08:10:19.606Z,16.47
2023-01-27T08:12:47.137Z,15.57
2023-01-27T08:15:16.035Z,15.93
2023-01-27T08:17:44.596Z,15.03
2023-01-27T08:20:15.836Z,14.40
2023-01-27T08:22:53.695Z,15.33
2023-01-27T08:25:23.537Z,15.73
2023-01-27T08:27:52.299Z,15.97
2023-01-27T08:30:19.829Z,15.40
2023-01-27T08:32:47.816Z,15.23
2023-01-27T08:35:26.518Z,18.13
2023-01-27T08:37:57.346Z,14.80
2023-01-27T08:40:28.016Z,14.00
2023-01-27T08:42:58.367Z,15.90
2023-01-27T08:45:26.359Z,15.23
2023-01-27T08:47:54.768Z,14.87
2023-01-27T08:50:22.449Z,16.30
2023-01-27T08:52:52.350Z,14.63
2023-01-27T08:55:23.711Z,14.97
2023-01-27T08:58:03.754Z,15.23
2023-01-27T09:00:32.642Z,13.47
2023-01-27T09:03:12.832Z,13.87
2023-01-27T09:09:11.167Z,11.37
2023-01-27T09:11:42.495Z,12.87
2023-01-27T09:14:10.390Z,11.63
2023-01-27T09:16:37.683Z,12.30
2023-01-27T09:19:04.799Z,11.20
2023-01-27T09:21:32.154Z,12.17
2023-01-27T09:23:59.236Z,12.03
2023-01-27T09:26:26.537Z,11.03
2023-01-27T09:28:53.530Z,11.67
2023-01-27T09:31:20.908Z,12.57
2023-01-27T09:33:47.979Z,13.70
2023-01-27T09:36:20.282Z,12.57
2023-01-27T09:39:02.699Z,12.30
2023-01-27T09:41:30.037Z,13.53
2023-01-27T09:43:56.976Z,14.00
2023-01-27T09:46:47.313Z,13.67
2023-01-27T09:49:47.468Z,13.73
2023-01-27T09:52:20.953Z,13.77
2023-01-27T09:54:59.625Z,14.13
2023-01-27T09:57:54.065Z,15.03
2023-01-27T10:00:42.866Z,15.10
2023-01-27T10:03:48.201Z,14.30
2023-01-27T10:06:19.770Z,13.40
2023-01-27T10:09:24.900Z,12.67
2023-01-27T10:12:10.711Z,10.73
2023-01-27T10:15:02.769Z,12.63
2023-01-27T10:18:14.070Z,12.23
2023-01-27T10:21:23.699Z,12.53
2023-01-27T10:23:56.479Z,12.93
2023-01-27T10:26:30.605Z,12.93
2023-01-27T10:29:10.158Z,11.50
2023-01-27T10:32:00.351Z,12.40
2023-01-27T10:34:34.400Z,11.27
2023-01-27T10:37:26.298Z,11.27
2023-01-27T10:40:11.167Z,12.07
2023-01-27T10:42:44.723Z,12.20
2023-01-27T10:45:28.830Z,11.83
2023-01-27T10:48:11.343Z,11.80
2023-01-27T10:50:46.810Z,10.87
2023-01-27T10:53:22.170Z,10.33
2023-01-27T10:56:04.645Z,12.00
2023-01-27T10:58:55.415Z,10.87
2023-01-27T11:01:36.246Z,10.63
2023-01-27T11:04:06.550Z,10.97
2023-01-27T11:06:38.599Z,10.53
2023-01-27T11:09:26.199Z,11.17
2023-01-27T11:11:56.128Z,12.30
2023-01-27T11:14:41.723Z,11.80
2023-01-27T11:17:24.563Z,12.10
2023-01-27T11:20:29.641Z,13.00
2023-01-27T11:23:18.148Z,10.97
2023-01-27T11:26:12.156Z,12.37
2023-01-27T11:29:06.462Z,13.07
2023-01-27T11:32:00.043Z,13.50
2023-01-27T11:35:03.933Z,13.97
2023-01-27T11:37:42.762Z,15.30
2023-01-27T11:40:36.550Z,14.20
2023-01-27T11:43:05.091Z,15.40
2023-01-27T11:45:36.082Z,18.10
2023-01-27T11:48:08.052Z,16.40
2023-01-27T11:50:36.610Z,15.97
2023-01-27T11:53:25.497Z,17.17
2023-01-27T11:55:58.623Z,16.13
2023-01-27T11:58:28.454Z,18.53
2023-01-27T12:01:01.564Z,14.37
2023-01-27T12:03:47.125Z,16.93
2023-01-27T12:06:18.866Z,15.93
2023-01-27T12:08:49.764Z,14.33
2023-01-27T12:11:22.954Z,15.57
2023-01-27T12:14:00.232Z,16.67
2023-01-27T12:16:40.867Z,15.50
2023-01-27T12:19:22.323Z,15.70
2023-01-27T12:22:11.214Z,14.13
2023-01-27T12:25:04.453Z,15.87
2023-01-27T12:27:41.051Z,14.53
2023-01-27T12:30:22.287Z,15.90
2023-01-27T12:32:49.720Z,17.37
2023-01-27T12:35:30.696Z,17.30
2023-01-27T12:38:14.319Z,17.10
2023-01-27T12:40:44.795Z,16.63
2023-01-27T12:43:20.000Z,16.80
2023-01-27T12:46:10.235Z,14.90
2023-01-27T12:48:47.979Z,15.00
2023-01-27T12:51:22.142Z,16.27
2023-01-27T12:54:22.941Z,14.40
2023-01-27T12:56:53.281Z,17.83
2023-01-27T12:59:23.597Z,18.43
2023-01-27T13:02:27.239Z,18.67
2023-01-27T13:05:02.252Z,18.47
2023-01-27T13:07:37.922Z,18.30
2023-01-27T13:10:15.998Z,17.03
2023-01-27T13:12:53.835Z,18.67
2023-01-27T13:15:23.846Z,18.70
2023-01-27T13:17:54.936Z,21.90
2023-01-27T13:20:33.813Z,19.97
2023-01-27T13:23:19.944Z,23.07
2023-01-27T13:26:06.906Z,22.57
2023-01-27T13:28:52.872Z,25.03
2023-01-27T13:31:33.112Z,23.07
2023-01-27T13:34:17.685Z,23.40
2023-01-27T13:37:33.180Z,25.10
2023-01-27T13:40:22.597Z,22.47
2023-01-27T13:43:29.134Z,24.63
2023-01-27T13:46:08.719Z,20.10
2023-01-27T13:48:42.800Z,20.43
2023-01-27T13:51:18.091Z,20.20
2023-01-27T13:53:47.746Z,22.90
2023-01-27T13:56:15.001Z,25.17
2023-01-27T13:59:09.169Z,23.00
2023-01-27T14:02:12.703Z,23.27
2023-01-27T14:05:01.086Z,23.53
2023-01-27T14:08:15.317Z,23.67
2023-01-27T14:11:11.391Z,22.80
2023-01-27T14:13:50.927Z,23.43
2023-01-27T14:16:21.703Z,21.13
2023-01-27T14:18:59.283Z,22.47
2023-01-27T14:21:59.207Z,24.70
2023-01-27T14:25:00.939Z,21.33
2023-01-27T14:27:47.271Z,23.07
2023-01-27T14:30:27.712Z,26.00
2023-01-27T14:33:15.833Z,25.23
2023-01-27T14:35:46.375Z,25.60
2023-01-27T14:38:21.833Z,22.40
2023-01-27T14:41:36.577Z,22.60
2023-01-27T14:44:13.998Z,19.90
2023-01-27T14:47:01.196Z,21.53
2023-01-27T14:49:41.945Z,20.73
2023-01-27T14:52:41.996Z,22.07
2023-01-27T14:55:28.958Z,22.20
2023-01-27T14:58:15.072Z,22.30
2023-01-27T15:01:02.767Z,22.63
2023-01-27T15:03:50.638Z,23.53
2023-01-27T15:06:43.163Z,22.07
2023-01-27T15:09:22.484Z,22.37
2023-01-27T15:12:09.524Z,21.70
2023-01-27T15:15:03.063Z,26.73
2023-01-27T15:17:41.916Z,22.87
2023-01-27T15:20:39.518Z,23.27
2023-01-27T15:23:26.230Z,22.77
2023-01-27T15:26:00.138Z,26.63
2023-01-27T15:28:32.397Z,28.07
2023-01-27T15:31:11.526Z,26.63
2023-01-27T15:33:51.129Z,27.70
2023-01-27T15:36:27.472Z,26.03
2023-01-27T15:39:09.810Z,28.97
2023-01-27T15:42:09.840Z,23.20
2023-01-27T15:45:02.162Z,25.50
2023-01-27T15:47:37.338Z,23.17
2023-01-27T15:50:19.018Z,25.23
2023-01-27T15:52:48.246Z,27.47
2023-01-27T15:55:34.804Z,30.53
2023-01-27T15:58:10.601Z,27.40
2023-01-27T16:00:42.780Z,26.80
2023-01-27T16:03:43.937Z,26.67
2023-01-27T16:06:17.348Z,28.77
2023-01-27T16:08:55.709Z,24.00
2023-01-27T16:11:28.630Z,28.23
2023-01-27T16:14:16.439Z,29.90
2023-01-27T16:16:52.612Z,26.00
2023-01-27T16:19:23.036Z,26.90
2023-01-27T16:21:57.693Z,27.43
2023-01-27T16:24:41.799Z,27.67
2023-01-27T16:27:14.420Z,27.80
2023-01-27T16:29:47.564Z,26.57
2023-01-27T16:32:20.290Z,26.20
2023-01-27T16:35:15.561Z,24.83
2023-01-27T16:38:00.216Z,23.47
2023-01-27T16:40:29.277Z,26.67
2023-01-27T16:43:08.867Z,26.50
2023-01-27T16:46:05.391Z,25.43
2023-01-27T16:48:43.360Z,22.30
2023-01-27T16:51:25.392Z,23.03
2023-01-27T16:53:54.963Z,22.33
2023-01-27T16:56:26.588Z,21.83
2023-01-27T16:59:00.650Z,25.70
2023-01-27T17:01:48.449Z,22.03
2023-01-27T17:04:30.320Z,27.60
2023-01-27T17:07:11.968Z,22.07
2023-01-27T17:10:00.079Z,25.70
2023-01-27T17:12:27.254Z,22.77
2023-01-27T17:14:54.748Z,25.23
2023-01-27T17:17:24.998Z,27.23
2023-01-27T17:20:02.247Z,26.20
2023-01-27T17:22:38.909Z,27.10
2023-01-27T17:25:15.589Z,29.43
2023-01-27T17:27:45.019Z,28.83
2023-01-27T17:30:18.376Z,30.60
2023-01-27T17:32:55.515Z,32.87
2023-01-27T17:35:28.420Z,29.17
2023-01-27T17:38:22.126Z,31.87
2023-01-27T17:40:52.184Z,33.57
2023-01-27T17:43:32.910Z,33.40
2023-01-27T17:46:06.149Z,30.37
2023-01-27T17:48:35.766Z,32.67
2023-01-27T17:51:02.736Z,34.07
2023-01-27T17:53:30.286Z,31.27
2023-01-27T17:55:57.410Z,33.50
2023-01-27T17:58:27.655Z,32.63
2023-01-27T18:00:57.199Z,32.80
2023-01-27T18:03:36.587Z,28.93
2023-01-27T18:06:06.610Z,33.27
2023-01-27T18:08:35.405Z,31.83
2023-01-27T18:11:20.740Z,29.77
2023-01-27T18:13:53.667Z,30.27
2023-01-27T18:16:23.657Z,28.37
2023-01-27T18:18:51.205Z,28.27
2023-01-27T18:21:23.698Z,31.97
2023-01-27T18:23:56.828Z,31.40
2023-01-27T18:26:32.546Z,30.07
2023-01-27T18:29:22.585Z,30.53
2023-01-27T18:31:56.198Z,29.93
2023-01-27T18:34:26.711Z,29.10
2023-01-27T18:37:03.602Z,29.10
2023-01-27T18:39:39.596Z,32.90
2023-01-27T18:42:16.069Z,32.33
2023-01-27T18:44:43.692Z,32.13
2023-01-27T18:47:19.485Z,27.17
2023-01-27T18:49:56.489Z,27.13
2023-01-27T18:52:23.751Z,26.67
2023-01-27T18:54:56.494Z,27.43
2023-01-27T18:57:23.500Z,30.30
2023-01-27T18:59:50.748Z,28.50
2023-01-27T19:02:17.870Z,27.13
2023-01-27T19:04:45.463Z,27.27
2023-01-27T19:07:15.800Z,29.83
2023-01-27T19:09:47.896Z,28.97
2023-01-27T19:12:15.453Z,27.67
2023-01-27T19:14:42.708Z,27.73
2023-01-27T19:17:17.979Z,28.90
2023-01-27T19:19:45.870Z,30.20
2023-01-27T19:22:17.581Z,27.83
2023-01-27T19:24:48.542Z,32.53
2023-01-27T19:27:17.699Z,28.93
2023-01-27T19:29:45.109Z,26.40
2023-01-27T19:32:14.364Z,24.47
2023-01-27T19:34:41.938Z,27.87
2023-01-27T19:37:18.474Z,22.90
2023-01-27T19:39:49.210Z,25.40
2023-01-27T19:42:16.689Z,26.63
2023-01-27T19:44:44.014Z,23.63
2023-01-27T19:47:13.368Z,23.20
2023-01-27T19:49:41.082Z,24.47
2023-01-27T19:52:10.089Z,25.17
2023-01-27T19:54:37.379Z,25.60
2023-01-27T19:57:05.074Z,27.20
2023-01-27T19:59:32.446Z,26.70
2023-01-27T20:01:59.406Z,23.00
2023-01-27T20:04:27.278Z,26.80
2023-01-27T20:06:54.291Z,22.77
2023-01-27T20:09:21.465Z,21.27
2023-01-27T20:11:48.443Z,23.50
2023-01-27T20:14:19.283Z,24.40
2023-01-27T20:16:47.399Z,23.27
2023-01-27T20:19:16.101Z,24.33
2023-01-27T20:21:44.036Z,25.90
2023-01-27T20:24:15.627Z,25.67
2023-01-27T20:26:42.625Z,29.80
2023-01-27T20:29:09.931Z,26.60
2023-01-27T20:31:39.218Z,23.57
2023-01-27T20:34:06.638Z,25.13
2023-01-27T20:36:33.561Z,24.40
2023-01-27T20:39:00.810Z,25.90
2023-01-27T20:41:28.342Z,26.37
2023-01-27T20:43:57.718Z,25.23
2023-01-27T20:46:25.100Z,25.50
2023-01-27T20:48:52.567Z,24.87
2023-01-27T20:51:19.916Z,25.20
2023-01-27T20:53:47.252Z,25.43
2023-01-27T20:56:19.447Z,23.70
2023-01-27T20:58:47.845Z,26.13
2023-01-27T21:01:18.091Z,24.33
2023-01-27T21:03:45.426Z,25.37
2023-01-27T21:06:13.970Z,27.00
2023-01-27T21:08:42.736Z,23.03
2023-01-27T21:11:13.153Z,26.53
2023-01-27T21:13:40.540Z,23.07
2023-01-27T21:16:08.293Z,24.47
2023-01-27T21:18:36.569Z,22.43
2023-01-27T21:21:04.219Z,22.70
2023-01-27T21:23:33.649Z,22.73
2023-01-27T21:26:11.646Z,22.13
2023-01-27T21:28:38.908Z,22.47
2023-01-27T21:31:10.811Z,20.27
2023-01-27T21:33:39.409Z,22.50
2023-01-27T21:36:10.339Z,22.00
2023-01-27T21:38:38.595Z,20.57
2023-01-27T21:41:10.972Z,20.43
2023-01-27T21:43:57.323Z,19.03
2023-01-27T21:46:24.417Z,20.13
2023-01-27T21:48:51.658Z,19.13
2023-01-27T21:51:18.616Z,19.87
2023-01-27T21:53:45.999Z,23.40
2023-01-27T21:56:13.445Z,20.00
2023-01-27T21:58:40.697Z,19.87
2023-01-27T22:01:09.729Z,18.57
2023-01-27T22:03:38.183Z,20.23
2023-01-27T22:06:08.960Z,18.27
2023-01-27T22:08:37.058Z,18.37
2023-01-27T22:11:11.574Z,21.77
2023-01-27T22:13:43.440Z,20.20
2023-01-27T22:16:16.205Z,22.47
2023-01-27T22:18:43.865Z,20.63
2023-01-27T22:21:10.913Z,20.20
2023-01-27T22:23:38.279Z,20.40
2023-01-27T22:26:09.154Z,17.93
2023-01-27T22:28:36.436Z,18.53
2023-01-27T22:31:03.439Z,19.80
2023-01-27T22:33:32.147Z,20.63
2023-01-27T22:36:01.187Z,19.43
2023-01-27T22:38:28.494Z,20.90
2023-01-27T22:40:56.943Z,17.80
2023-01-27T22:43:24.362Z,19.93
2023-01-27T22:45:51.334Z,18.77
2023-01-27T22:48:18.571Z,18.27
2023-01-27T22:50:45.687Z,19.20
2023-01-27T22:53:12.992Z,18.67
2023-01-27T22:55:39.967Z,21.77
2023-01-27T22:58:07.937Z,18.37
2023-01-27T23:00:34.931Z,18.83
2023-01-27T23:03:02.189Z,20.27
2023-01-27T23:05:29.234Z,18.63
2023-01-27T23:07:56.479Z,19.27
2023-01-27T23:10:23.793Z,17.20
2023-01-27T23:12:51.279Z,21.37
2023-01-27T23:15:18.355Z,20.67
2023-01-27T23:17:47.289Z,19.03
2023-01-27T23:20:14.911Z,20.10
2023-01-27T23:22:43.287Z,19.47
2023-01-27T23:25:11.939Z,20.83
2023-01-27T23:27:40.506Z,18.47
2023-01-27T23:30:09.918Z,18.33
2023-01-27T23:32:38.492Z,17.93
2023-01-27T23:35:06.059Z,20.37
2023-01-27T23:37:33.482Z,22.60
2023-01-27T23:40:00.423Z,21.43
2023-01-27T23:42:27.656Z,21.37
2023-01-27T23:44:54.612Z,21.93
2023-01-27T23:47:24.894Z,19.00
2023-01-27T23:49:51.936Z,18.60
2023-01-27T23:52:19.176Z,20.17
2023-01-27T23:54:46.217Z,18.23
2023-01-27T23:57:13.565Z,20.03
2023-01-27T23:59:41.360Z,18.63
